createdAt,value
2019-04-14T00:02:40.491Z,6.73
2019-04-14T00:07:44.967Z,6.57
2019-04-14T00:12:49.251Z,6.50
2019-04-14T00:17:52.540Z,6.27
2019-04-14T00:22:55.516Z,5.90
2019-04-14T00:27:59.273Z,4.60
2019-04-14T00:33:04.231Z,5.07
2019-04-14T00:38:26.737Z,5.27
2019-04-14T00:43:50.614Z,4.50
2019-04-14T00:48:54.052Z,5.40
2019-04-14T00:53:57.939Z,4.80
2019-04-14T00:59:01.383Z,4.37
2019-04-14T01:04:04.275Z,5.00
2019-04-14T01:09:10.793Z,5.07
2019-04-14T01:14:15.128Z,4.60
2019-04-14T01:19:18.285Z,5.00
2019-04-14T01:24:20.716Z,5.23
2019-04-14T01:29:25.432Z,6.20
2019-04-14T01:34:28.252Z,5.03
2019-04-14T01:39:31.165Z,5.33
2019-04-14T01:44:35.173Z,5.13
2019-04-14T01:49:37.991Z,4.97
2019-04-14T01:55:06.971Z,5.50
2019-04-14T02:00:33.734Z,5.70
2019-04-14T02:05:36.846Z,5.03
2019-04-14T02:10:39.710Z,5.00
2019-04-14T02:15:42.587Z,5.50
2019-04-14T02:20:46.849Z,5.17
2019-04-14T02:25:49.631Z,4.67
2019-04-14T02:31:08.085Z,5.10
2019-04-14T02:46:39.963Z,5.20
2019-04-14T02:56:43.366Z,5.60
2019-04-14T03:06:55.152Z,5.23
2019-04-14T03:12:01.675Z,5.40
2019-04-14T03:22:45.948Z,5.53
2019-04-14T03:33:18.035Z,5.47
2019-04-14T03:38:17.072Z,7.00
2019-04-14T03:43:15.387Z,5.50
2019-04-14T03:57:58.384Z,5.37
2019-04-14T04:03:02.083Z,5.90
2019-04-14T04:08:05.226Z,5.03
2019-04-14T04:13:08.399Z,5.03
2019-04-14T04:18:19.895Z,5.50
2019-04-14T04:23:29.369Z,4.67
2019-04-14T04:28:51.710Z,4.23
2019-04-14T04:34:20.843Z,4.80
2019-04-14T04:39:28.000Z,5.10
2019-04-14T04:44:31.338Z,6.10
2019-04-14T04:49:34.646Z,5.20
2019-04-14T04:54:38.474Z,5.47
2019-04-14T04:59:42.856Z,6.53
2019-04-14T05:04:48.310Z,5.70
2019-04-14T05:10:11.004Z,6.17
2019-04-14T05:15:40.253Z,7.87
2019-04-14T05:20:44.138Z,6.50
2019-04-14T05:25:47.404Z,8.03
2019-04-14T05:30:50.445Z,8.00
2019-04-14T05:35:53.632Z,6.17
2019-04-14T05:40:56.831Z,6.70
2019-04-14T05:46:01.209Z,7.20
2019-04-14T05:51:04.629Z,7.23
2019-04-14T05:56:08.146Z,6.83
2019-04-14T06:01:11.787Z,6.77
2019-04-14T06:06:14.959Z,6.67
2019-04-14T06:11:18.154Z,6.57
2019-04-14T06:16:20.979Z,6.27
2019-04-14T06:21:23.840Z,6.50
2019-04-14T06:26:26.746Z,6.87
2019-04-14T06:31:39.890Z,7.93
2019-04-14T06:37:14.347Z,6.57
2019-04-14T06:42:17.829Z,8.13
2019-04-14T06:47:21.052Z,7.10
2019-04-14T06:52:23.551Z,6.97
2019-04-14T06:57:27.069Z,7.87
2019-04-14T07:02:29.870Z,6.37
2019-04-14T07:07:33.493Z,6.80
2019-04-14T07:12:36.839Z,7.07
2019-04-14T07:17:40.356Z,7.30
2019-04-14T07:22:43.743Z,7.50
